createdAt,value
2022-11-04T00:00:00.536Z,99064.50
2022-11-04T00:02:30.177Z,99059.31
2022-11-04T00:04:59.750Z,99067.34
2022-11-04T00:07:41.836Z,99068.28
2022-11-04T00:10:14.114Z,99066.56
2022-11-04T00:12:41.088Z,99077.25
2022-11-04T00:15:23.740Z,99079.25
2022-11-04T00:17:53.277Z,99089.16
2022-11-04T00:20:35.289Z,99091.06
2022-11-04T00:23:17.321Z,99097.50
2022-11-04T00:26:01.704Z,99102.19
2022-11-04T00:28:47.129Z,99100.50
2022-11-04T00:31:43.899Z,99100.38
2022-11-04T00:34:13.689Z,99109.09
2022-11-04T00:36:43.235Z,99107.97
2022-11-04T00:39:12.867Z,99100.66
2022-11-04T00:41:44.982Z,99107.56
2022-11-04T00:44:14.498Z,99113.63
2022-11-04T00:46:44.122Z,99117.88
2022-11-04T00:49:13.795Z,99116.06
2022-11-04T00:51:43.381Z,99117.88
2022-11-04T00:54:13.000Z,99115.25
2022-11-04T00:56:45.177Z,99111.00
2022-11-04T00:59:14.869Z,99128.72
2022-11-04T01:01:44.664Z,99134.88
2022-11-04T01:04:14.447Z,99131.28
2022-11-04T01:06:44.008Z,99136.41
2022-11-04T01:09:15.045Z,99140.81
2022-11-04T01:11:47.236Z,99140.81
2022-11-04T01:14:17.208Z,99153.94
2022-11-04T01:16:46.937Z,99167.94
2022-11-04T01:19:16.512Z,99168.78
2022-11-04T01:21:46.217Z,99162.56
2022-11-04T01:24:16.257Z,99169.66
2022-11-04T01:26:48.505Z,99170.47
2022-11-04T01:29:18.062Z,99176.50
2022-11-04T01:31:47.664Z,99180.97
2022-11-04T01:34:17.228Z,99192.38
2022-11-04T01:36:46.914Z,99184.44
2022-11-04T01:39:16.506Z,99189.75
2022-11-04T01:41:48.632Z,99192.38
2022-11-04T01:44:48.484Z,99192.31
2022-11-04T01:47:20.550Z,99191.44
2022-11-04T01:49:52.989Z,99191.44
2022-11-04T01:52:26.553Z,99187.88
2022-11-04T01:54:58.943Z,99195.13
2022-11-04T01:57:37.468Z,99198.81
2022-11-04T02:00:10.451Z,99194.84
2022-11-04T02:02:54.781Z,99194.44
2022-11-04T02:05:24.716Z,99190.47
2022-11-04T02:07:58.107Z,99189.88
2022-11-04T02:10:29.694Z,99189.41
2022-11-04T02:13:01.964Z,99185.41
2022-11-04T02:15:39.125Z,99191.25
2022-11-04T02:18:25.252Z,99190.25
2022-11-04T02:21:24.206Z,99183.72
2022-11-04T02:24:06.076Z,99190.09
2022-11-04T02:27:06.041Z,99180.28
2022-11-04T02:29:50.597Z,99171.44
2022-11-04T02:32:24.218Z,99172.81
2022-11-04T02:34:59.661Z,99173.44
2022-11-04T02:37:35.879Z,99175.91
2022-11-04T02:40:11.795Z,99179.16
2022-11-04T02:42:47.570Z,99177.19
2022-11-04T02:45:22.318Z,99178.69
2022-11-04T02:47:54.011Z,99181.00
2022-11-04T02:50:28.245Z,99184.03
2022-11-04T02:53:00.837Z,99176.53
2022-11-04T02:55:32.170Z,99185.72
2022-11-04T02:58:03.251Z,99187.72
2022-11-04T03:00:37.081Z,99196.75
2022-11-04T03:03:10.374Z,99197.06
2022-11-04T03:05:42.826Z,99196.47
2022-11-04T03:08:17.346Z,99197.56
2022-11-04T03:10:48.952Z,99196.09
2022-11-04T03:13:20.372Z,99190.13
2022-11-04T03:15:54.515Z,99193.00
2022-11-04T03:18:25.578Z,99183.63
2022-11-04T03:20:57.642Z,99180.38
2022-11-04T03:23:27.295Z,99179.66
2022-11-04T03:26:01.384Z,99179.75
2022-11-04T03:28:33.683Z,99181.63
2022-11-04T03:31:07.884Z,99179.13
2022-11-04T03:33:38.341Z,99181.00
2022-11-04T03:36:08.802Z,99179.44
2022-11-04T03:38:38.570Z,99184.88
2022-11-04T03:41:13.269Z,99185.81
2022-11-04T03:43:43.737Z,99190.38
2022-11-04T03:46:15.987Z,99189.69
2022-11-04T03:48:47.395Z,99195.09
2022-11-04T03:51:16.951Z,99197.03
2022-11-04T03:53:47.300Z,99198.03
2022-11-04T03:56:57.746Z,99204.22
2022-11-04T03:59:42.343Z,99205.94
2022-11-04T04:02:18.216Z,99199.59
2022-11-04T04:04:52.072Z,99197.59
2022-11-04T04:07:24.790Z,99191.25
2022-11-04T04:09:58.911Z,99190.00
2022-11-04T04:12:29.516Z,99192.16
2022-11-04T04:15:03.639Z,99189.81
2022-11-04T04:17:37.070Z,99191.81
2022-11-04T04:20:09.494Z,99196.75
2022-11-04T04:22:41.009Z,99201.03
2022-11-04T04:25:25.613Z,99202.91
2022-11-04T04:27:56.355Z,99198.56
2022-11-04T04:30:26.682Z,99196.84
2022-11-04T04:33:00.718Z,99199.25
2022-11-04T04:35:45.145Z,99199.00
2022-11-04T04:38:33.372Z,99198.69
2022-11-04T04:41:20.689Z,99199.16
2022-11-04T04:44:02.833Z,99203.91
2022-11-04T04:46:32.785Z,99199.16
2022-11-04T04:49:11.658Z,99209.41
2022-11-04T04:51:44.527Z,99212.03
2022-11-04T04:54:14.150Z,99210.09
2022-11-04T04:56:43.742Z,99206.50
2022-11-04T04:59:13.261Z,99208.31
2022-11-04T05:01:43.002Z,99211.03
2022-11-04T05:04:15.267Z,99221.81
2022-11-04T05:06:44.818Z,99223.06
2022-11-04T05:09:14.339Z,99214.72
2022-11-04T05:11:43.977Z,99219.53
2022-11-04T05:14:13.670Z,99217.28
2022-11-04T05:16:43.233Z,99215.09
2022-11-04T05:19:15.419Z,99208.47
2022-11-04T05:21:45.049Z,99210.56
2022-11-04T05:24:17.790Z,99206.56
2022-11-04T05:26:47.398Z,99214.63
2022-11-04T05:29:16.974Z,99223.47
2022-11-04T05:31:46.575Z,99221.63
2022-11-04T05:34:18.772Z,99225.00
2022-11-04T05:36:48.386Z,99218.56
2022-11-04T05:39:18.707Z,99219.09
2022-11-04T05:41:48.273Z,99232.75
2022-11-04T05:44:18.274Z,99229.03
2022-11-04T05:46:47.933Z,99234.16
2022-11-04T05:49:20.076Z,99239.19
2022-11-04T05:51:51.801Z,99235.38
2022-11-04T05:54:21.397Z,99228.06
2022-11-04T05:56:52.433Z,99233.19
2022-11-04T05:59:22.093Z,99228.00
2022-11-04T06:01:51.877Z,99236.91
2022-11-04T06:04:24.713Z,99231.81
2022-11-04T06:06:54.323Z,99241.47
2022-11-04T06:09:38.870Z,99240.63
2022-11-04T06:12:10.522Z,99235.38
2022-11-04T06:14:40.265Z,99242.34
2022-11-04T06:17:09.945Z,99247.38
2022-11-04T06:19:42.190Z,99248.06
2022-11-04T06:22:12.064Z,99260.94
2022-11-04T06:24:41.710Z,99259.91
2022-11-04T06:27:11.909Z,99267.75
2022-11-04T06:29:42.237Z,99267.16
2022-11-04T06:32:12.745Z,99272.81
2022-11-04T06:34:44.941Z,99277.72
2022-11-04T06:37:14.630Z,99278.03
2022-11-04T06:39:44.302Z,99281.91
2022-11-04T06:42:13.910Z,99292.63
2022-11-04T06:44:43.508Z,99292.63
2022-11-04T06:47:13.197Z,99291.53
2022-11-04T06:49:45.457Z,99292.16
2022-11-04T06:52:15.323Z,99290.91
2022-11-04T06:54:45.017Z,99296.63
2022-11-04T06:57:14.652Z,99290.91
2022-11-04T06:59:44.206Z,99296.63
2022-11-04T07:02:14.322Z,99302.34
2022-11-04T07:04:46.754Z,99307.13
2022-11-04T07:07:16.791Z,99307.59
2022-11-04T07:09:46.361Z,99304.56
2022-11-04T07:12:15.986Z,99313.00
2022-11-04T07:14:45.631Z,99313.53
2022-11-04T07:17:15.222Z,99316.78
2022-11-04T07:19:47.992Z,99318.25
2022-11-04T07:22:17.555Z,99319.78
2022-11-04T07:24:47.228Z,99325.72
2022-11-04T07:27:16.791Z,99335.22
2022-11-04T07:29:46.426Z,99329.84
2022-11-04T07:32:16.053Z,99334.97
2022-11-04T07:34:48.184Z,99337.41
2022-11-04T07:37:17.762Z,99346.88
2022-11-04T07:39:47.497Z,99356.44
2022-11-04T07:42:17.036Z,99361.63
2022-11-04T07:44:55.352Z,99364.09
2022-11-04T07:47:25.103Z,99368.34
2022-11-04T07:49:57.516Z,99365.56
2022-11-04T07:52:27.465Z,99381.34
2022-11-04T07:54:57.278Z,99375.97
2022-11-04T07:57:26.958Z,99382.88
2022-11-04T07:59:56.586Z,99391.47
2022-11-04T08:02:31.062Z,99379.97
2022-11-04T08:05:06.501Z,99388.59
2022-11-04T08:07:36.086Z,99383.13
2022-11-04T08:10:05.809Z,99399.59
2022-11-04T08:12:35.628Z,99393.28
2022-11-04T08:15:05.252Z,99394.22
2022-11-04T08:17:34.830Z,99396.16
2022-11-04T08:20:09.693Z,99395.59
2022-11-04T08:22:39.291Z,99397.81
2022-11-04T08:25:11.218Z,99401.03
2022-11-04T08:27:40.783Z,99400.63
2022-11-04T08:30:12.188Z,99406.25
2022-11-04T08:32:41.969Z,99404.91
2022-11-04T08:35:14.710Z,99402.56
2022-11-04T08:37:44.496Z,99401.19
2022-11-04T08:40:14.507Z,99395.28
2022-11-04T08:42:44.042Z,99395.47
2022-11-04T08:45:13.837Z,99397.22
2022-11-04T08:47:43.409Z,99400.56
2022-11-04T08:50:15.543Z,99394.91
2022-11-04T08:52:45.139Z,99397.78
2022-11-04T08:55:14.720Z,99387.47
2022-11-04T08:57:44.272Z,99388.63
2022-11-04T09:00:16.282Z,99391.66
2022-11-04T09:02:45.863Z,99386.72
2022-11-04T09:05:18.229Z,99394.13
2022-11-04T09:07:47.795Z,99399.84
2022-11-04T09:10:17.359Z,99394.16
2022-11-04T09:12:47.495Z,99391.69
2022-11-04T09:15:17.105Z,99397.81
2022-11-04T09:17:47.040Z,99399.28
2022-11-04T09:20:19.308Z,99401.19
2022-11-04T09:22:50.407Z,99393.88
2022-11-04T09:25:20.190Z,99396.03
2022-11-04T09:27:49.954Z,99398.50
2022-11-04T09:30:19.847Z,99400.09
2022-11-04T09:32:52.702Z,99395.88
2022-11-04T09:35:25.231Z,99384.19
2022-11-04T09:37:54.781Z,99383.47
2022-11-04T09:40:26.861Z,99391.91
2022-11-04T09:43:04.560Z,99401.31
2022-11-04T09:45:34.985Z,99399.91
2022-11-04T09:48:07.669Z,99390.88
2022-11-04T09:50:47.150Z,99394.94
2022-11-04T09:53:20.462Z,99386.19
2022-11-04T09:55:53.851Z,99392.81
2022-11-04T09:58:23.509Z,99385.97
2022-11-04T10:01:02.891Z,99385.84
2022-11-04T10:03:56.821Z,99389.25
2022-11-04T10:06:38.427Z,99394.13
2022-11-04T10:09:21.262Z,99398.59
2022-11-04T10:11:59.424Z,99402.34
2022-11-04T10:14:48.126Z,99406.25
2022-11-04T10:17:32.310Z,99407.84
2022-11-04T10:20:13.871Z,99411.34
2022-11-04T10:22:50.925Z,99404.34
2022-11-04T10:25:24.775Z,99406.88
2022-11-04T10:27:55.152Z,99410.31
2022-11-04T10:30:25.878Z,99405.31
2022-11-04T10:33:04.574Z,99407.13
2022-11-04T10:35:37.905Z,99414.59
2022-11-04T10:38:20.889Z,99415.56
2022-11-04T10:40:52.527Z,99419.06
2022-11-04T10:43:29.033Z,99429.06
2022-11-04T10:46:08.642Z,99420.13
2022-11-04T10:48:41.733Z,99420.78
2022-11-04T10:51:11.690Z,99427.03
2022-11-04T10:53:43.950Z,99428.66
2022-11-04T10:56:21.902Z,99426.84
2022-11-04T10:58:51.967Z,99429.91
2022-11-04T11:01:28.215Z,99432.66
2022-11-04T11:03:58.529Z,99446.50
2022-11-04T11:06:30.406Z,99452.84
2022-11-04T11:09:15.251Z,99455.19
2022-11-04T11:11:47.956Z,99450.81
2022-11-04T11:14:20.127Z,99453.47
2022-11-04T11:16:49.698Z,99458.03
2022-11-04T11:19:21.757Z,99460.63
2022-11-04T11:21:52.884Z,99460.63
2022-11-04T11:24:26.746Z,99474.00
2022-11-04T11:26:58.095Z,99473.28
2022-11-04T11:29:29.694Z,99468.19
2022-11-04T11:32:00.703Z,99470.97
2022-11-04T11:34:33.681Z,99472.03
2022-11-04T11:37:05.762Z,99469.56
2022-11-04T11:39:38.869Z,99471.81
2022-11-04T11:42:10.040Z,99471.41
2022-11-04T11:44:44.549Z,99467.44
2022-11-04T11:47:25.275Z,99478.63
2022-11-04T11:50:09.579Z,99481.81
2022-11-04T11:52:39.866Z,99475.41
2022-11-04T11:55:17.117Z,99474.34
2022-11-04T12:00:48.750Z,99479.63
2022-11-04T12:03:23.885Z,99487.72
2022-11-04T12:06:18.270Z,99493.03
2022-11-04T12:12:04.944Z,99484.22
2022-11-04T12:14:48.867Z,99493.03
2022-11-04T12:17:28.807Z,99489.53
2022-11-04T12:20:10.294Z,99486.03
2022-11-04T12:22:50.041Z,99480.28
2022-11-04T12:25:24.821Z,99486.69
2022-11-04T12:28:02.998Z,99481.50
2022-11-04T12:30:38.319Z,99487.97
2022-11-04T12:33:20.065Z,99495.63
2022-11-04T12:36:01.991Z,99493.59
2022-11-04T12:38:45.782Z,99503.06
2022-11-04T12:44:20.774Z,99492.25
2022-11-04T12:46:56.733Z,99501.56
2022-11-04T12:49:50.509Z,99492.84
2022-11-04T12:52:32.556Z,99498.38
2022-11-04T12:55:11.761Z,99500.16
2022-11-04T12:57:47.962Z,99497.28
2022-11-04T13:00:25.782Z,99502.06
2022-11-04T13:03:00.650Z,99503.31
2022-11-04T13:05:44.916Z,99502.88
2022-11-04T13:08:22.426Z,99511.06
2022-11-04T13:10:56.359Z,99502.22
2022-11-04T13:13:30.133Z,99509.34
2022-11-04T13:16:05.554Z,99506.78
2022-11-04T13:18:38.685Z,99506.78
2022-11-04T13:21:11.412Z,99505.19
2022-11-04T13:23:45.424Z,99504.41
2022-11-04T13:26:16.407Z,99517.63
2022-11-04T13:28:47.727Z,99519.19
2022-11-04T13:31:25.103Z,99525.84
2022-11-04T13:33:57.559Z,99514.59
2022-11-04T13:36:37.263Z,99510.34
2022-11-04T13:39:12.151Z,99510.69
2022-11-04T13:42:08.756Z,99526.25
2022-11-04T13:44:40.448Z,99525.25
2022-11-04T13:47:22.374Z,99525.81
2022-11-04T13:49:53.846Z,99530.91
2022-11-04T13:52:23.535Z,99532.63
2022-11-04T13:54:57.395Z,99542.53
2022-11-04T13:57:28.899Z,99551.53
2022-11-04T14:00:24.179Z,99559.63
2022-11-04T14:02:57.829Z,99556.22
2022-11-04T14:06:12.087Z,99563.34
2022-11-04T14:09:25.062Z,99563.34
2022-11-04T14:12:26.742Z,99573.03
2022-11-04T14:14:58.375Z,99579.19
2022-11-04T14:17:58.275Z,99587.88
2022-11-04T14:20:33.400Z,99585.34
2022-11-04T14:23:04.301Z,99579.38
2022-11-04T14:25:36.551Z,99593.84
2022-11-04T14:28:19.995Z,99581.78
2022-11-04T14:30:52.373Z,99592.94
2022-11-04T14:33:32.289Z,99592.47
2022-11-04T14:36:28.236Z,99602.66
2022-11-04T14:39:00.589Z,99605.78
2022-11-04T14:41:52.783Z,99606.22
2022-11-04T14:44:27.246Z,99610.22
2022-11-04T14:46:59.624Z,99613.25
2022-11-04T14:49:41.062Z,99627.78
2022-11-04T14:52:23.196Z,99630.91
2022-11-04T14:54:57.617Z,99637.66
2022-11-04T14:57:27.847Z,99632.72
2022-11-04T14:59:57.616Z,99642.75
2022-11-04T15:02:28.993Z,99647.66
2022-11-04T15:05:01.394Z,99651.63
2022-11-04T15:07:41.163Z,99656.44
2022-11-04T15:10:24.955Z,99653.41
2022-11-04T15:12:55.338Z,99660.88
2022-11-04T15:15:30.935Z,99673.59
2022-11-04T15:18:03.875Z,99670.34
2022-11-04T15:20:34.421Z,99676.97
2022-11-04T15:23:07.560Z,99679.22
2022-11-04T15:25:38.134Z,99689.41
2022-11-04T15:28:07.639Z,99688.13
2022-11-04T15:30:37.399Z,99698.22
2022-11-04T15:33:07.395Z,99695.06
2022-11-04T15:35:43.486Z,99699.63
2022-11-04T15:38:17.363Z,99709.34
2022-11-04T15:40:48.036Z,99711.94
2022-11-04T15:43:17.798Z,99714.50
2022-11-04T15:45:56.125Z,99720.47
2022-11-04T15:48:33.734Z,99714.13
2022-11-04T15:51:16.638Z,99722.78
2022-11-04T15:53:57.353Z,99727.97
2022-11-04T15:56:30.187Z,99733.09
2022-11-04T15:59:00.424Z,99727.78
2022-11-04T16:01:32.800Z,99740.13
2022-11-04T16:04:03.653Z,99745.41
2022-11-04T16:06:38.030Z,99747.97
2022-11-04T16:09:23.227Z,99747.03
2022-11-04T16:12:09.266Z,99751.41
2022-11-04T16:14:38.868Z,99748.66
2022-11-04T16:17:13.399Z,99762.66
2022-11-04T16:19:43.000Z,99764.38
2022-11-04T16:22:13.138Z,99760.81
2022-11-04T16:24:50.006Z,99764.38
2022-11-04T16:27:22.018Z,99762.66
2022-11-04T16:30:04.807Z,99769.28
2022-11-04T16:32:43.874Z,99761.00
2022-11-04T16:35:20.272Z,99766.97
2022-11-04T16:37:50.746Z,99776.38
2022-11-04T16:40:23.451Z,99779.59
2022-11-04T16:42:53.477Z,99783.53
2022-11-04T16:45:27.814Z,99790.09
2022-11-04T16:47:57.617Z,99787.84
2022-11-04T16:50:28.131Z,99793.41
2022-11-04T16:52:57.847Z,99784.84
2022-11-04T16:55:31.395Z,99785.03
2022-11-04T16:58:03.415Z,99790.44
2022-11-04T17:00:34.619Z,99796.69
2022-11-04T17:03:05.363Z,99799.09
2022-11-04T17:05:34.898Z,99792.69
2022-11-04T17:08:06.186Z,99803.81
2022-11-04T17:10:39.234Z,99806.16
2022-11-04T17:13:09.221Z,99804.88
2022-11-04T17:15:39.289Z,99801.31
2022-11-04T17:18:09.533Z,99805.81
2022-11-04T17:20:39.094Z,99813.22
2022-11-04T17:23:08.775Z,99819.81
2022-11-04T17:25:41.154Z,99820.09
2022-11-04T17:28:10.910Z,99829.94
2022-11-04T17:30:40.641Z,99825.31
2022-11-04T17:33:13.435Z,99832.03
2022-11-04T17:35:44.924Z,99844.00
2022-11-04T17:38:15.218Z,99843.75
2022-11-04T17:41:00.212Z,99851.53
2022-11-04T17:43:42.388Z,99855.66
2022-11-04T17:46:24.769Z,99860.78
2022-11-04T17:48:54.330Z,99863.34
2022-11-04T17:51:23.949Z,99870.19
2022-11-04T17:53:53.807Z,99870.03
2022-11-04T17:56:26.689Z,99876.03
2022-11-04T17:58:56.305Z,99876.81
2022-11-04T18:01:26.263Z,99873.13
2022-11-04T18:03:56.322Z,99871.34
2022-11-04T18:06:26.015Z,99886.31
2022-11-04T18:08:55.882Z,99883.66
2022-11-04T18:11:42.276Z,99882.88
2022-11-04T18:14:17.008Z,99894.41
2022-11-04T18:16:48.869Z,99895.50
2022-11-04T18:19:19.243Z,99901.13
2022-11-04T18:21:49.135Z,99895.38
2022-11-04T18:24:19.418Z,99904.81
2022-11-04T18:26:51.617Z,99901.00
2022-11-04T18:29:21.182Z,99893.75
2022-11-04T18:31:50.738Z,99897.09
2022-11-04T18:34:21.593Z,99899.66
2022-11-04T18:36:52.003Z,99903.97
2022-11-04T18:39:22.209Z,99904.81
2022-11-04T18:41:54.325Z,99919.72
2022-11-04T18:44:25.088Z,99917.72
2022-11-04T18:46:54.848Z,99918.28
2022-11-04T18:49:24.365Z,99923.13
2022-11-04T18:51:53.897Z,99929.69
2022-11-04T18:54:23.425Z,99927.38
2022-11-04T18:56:55.791Z,99931.25
2022-11-04T18:59:25.488Z,99930.72
2022-11-04T19:01:55.073Z,99932.84
2022-11-04T19:04:24.727Z,99930.53
2022-11-04T19:06:54.306Z,99941.31
2022-11-04T19:12:28.643Z,99953.16
2022-11-04T19:14:58.236Z,99951.59
2022-11-04T19:17:27.840Z,99947.25
2022-11-04T19:19:58.176Z,99955.09
2022-11-04T19:22:27.945Z,99955.03
2022-11-04T19:24:57.537Z,99952.25
2022-11-04T19:27:29.776Z,99964.41
2022-11-04T19:29:59.441Z,99967.84
2022-11-04T19:32:28.966Z,99966.06
2022-11-04T19:34:58.529Z,99967.19
2022-11-04T19:37:28.279Z,99977.94
2022-11-04T19:39:58.056Z,99973.84
2022-11-04T19:42:42.689Z,99985.41
2022-11-04T19:45:12.501Z,99983.81
2022-11-04T19:47:42.169Z,99982.16
2022-11-04T19:50:12.747Z,99979.72
2022-11-04T19:52:42.905Z,99989.59
2022-11-04T19:55:12.536Z,99982.78
2022-11-04T19:57:44.665Z,99989.25
2022-11-04T20:00:14.831Z,99999.94
2022-11-04T20:02:44.461Z,99999.19
2022-11-04T20:05:14.020Z,99997.44
2022-11-04T20:07:43.646Z,100005.38
2022-11-04T20:10:13.613Z,100011.47
2022-11-04T20:12:58.187Z,100012.22
2022-11-04T20:15:28.667Z,100018.25
2022-11-04T20:17:58.397Z,100020.75
2022-11-04T20:20:27.983Z,100033.75
2022-11-04T20:22:57.655Z,100031.81
2022-11-04T20:25:27.491Z,100034.28
2022-11-04T20:27:59.658Z,100027.00
2022-11-04T20:30:29.248Z,100031.19
2022-11-04T20:32:58.779Z,100036.19
2022-11-04T20:35:28.625Z,100043.06
2022-11-04T20:37:58.310Z,100043.66
2022-11-04T20:40:27.925Z,100049.63
2022-11-04T20:43:00.697Z,100064.34
2022-11-04T20:45:30.253Z,100069.38
2022-11-04T20:47:59.910Z,100070.09
2022-11-04T20:50:29.434Z,100075.19
2022-11-04T20:52:59.076Z,100072.41
2022-11-04T20:55:28.584Z,100079.44
2022-11-04T20:58:01.107Z,100082.84
2022-11-04T21:00:31.245Z,100081.84
2022-11-04T21:03:00.850Z,100094.09
2022-11-04T21:05:30.623Z,100095.75
2022-11-04T21:08:00.159Z,100094.75
2022-11-04T21:10:29.697Z,100098.09
2022-11-04T21:13:03.048Z,100113.78
2022-11-04T21:15:44.727Z,100119.78
2022-11-04T21:18:15.276Z,100118.78
2022-11-04T21:20:46.430Z,100126.53
2022-11-04T21:23:16.839Z,100132.53
2022-11-04T21:25:48.901Z,100136.75
2022-11-04T21:28:21.250Z,100135.72
2022-11-04T21:30:52.345Z,100143.63
2022-11-04T21:33:22.458Z,100141.88
2022-11-04T21:35:52.008Z,100148.00
2022-11-04T21:38:23.399Z,100152.44
2022-11-04T21:40:53.046Z,100148.91
2022-11-04T21:43:25.313Z,100150.72
2022-11-04T21:45:54.950Z,100149.88
2022-11-04T21:48:24.486Z,100161.34
2022-11-04T21:50:54.175Z,100167.56
2022-11-04T21:53:23.715Z,100162.28
2022-11-04T21:55:53.389Z,100162.28
2022-11-04T21:58:25.517Z,100167.50
2022-11-04T22:00:58.127Z,100173.69
2022-11-04T22:03:28.305Z,100177.28
2022-11-04T22:06:01.946Z,100176.41
2022-11-04T22:08:32.359Z,100180.84
2022-11-04T22:11:08.655Z,100180.84
2022-11-04T22:13:40.856Z,100180.84
2022-11-04T22:16:14.717Z,100185.28
2022-11-04T22:18:44.393Z,100189.91
2022-11-04T22:21:17.064Z,100191.72
2022-11-04T22:23:47.300Z,100194.38
2022-11-04T22:26:18.300Z,100191.66
2022-11-04T22:28:51.031Z,100196.22
2022-11-04T22:31:23.072Z,100197.44
2022-11-04T22:33:53.165Z,100197.88
2022-11-04T22:36:23.446Z,100199.31
2022-11-04T22:38:53.720Z,100208.66
2022-11-04T22:41:29.234Z,100202.06
2022-11-04T22:44:03.702Z,100205.91
2022-11-04T22:46:35.172Z,100212.44
2022-11-04T22:49:04.944Z,100206.56
2022-11-04T22:51:34.575Z,100212.09
2022-11-04T22:54:08.291Z,100205.31
2022-11-04T22:56:38.040Z,100208.31
2022-11-04T22:59:10.557Z,100205.09
2022-11-04T23:01:40.831Z,100211.41
2022-11-04T23:04:12.306Z,100218.66
2022-11-04T23:06:42.228Z,100213.72
2022-11-04T23:09:13.131Z,100210.53
2022-11-04T23:11:55.187Z,100215.28
2022-11-04T23:14:40.261Z,100216.50
2022-11-04T23:17:30.010Z,100226.50
2022-11-04T23:19:59.591Z,100226.75
2022-11-04T23:22:41.609Z,100227.75
2022-11-04T23:25:12.076Z,100228.88
2022-11-04T23:27:56.599Z,100240.47
2022-11-04T23:30:30.397Z,100244.31
2022-11-04T23:33:01.858Z,100245.38
2022-11-04T23:35:45.659Z,100243.91
2022-11-04T23:38:15.360Z,100246.75
2022-11-04T23:41:05.113Z,100245.22
2022-11-04T23:43:34.673Z,100250.72
2022-11-04T23:46:19.427Z,100248.25
2022-11-04T23:49:01.516Z,100245.81
2022-11-04T23:51:43.728Z,100245.19
2022-11-04T23:54:25.959Z,100243.66
2022-11-04T23:57:07.983Z,100242.09
2022-11-04T23:59:49.985Z,100244.91
